sensor_id;sensor_type;location;lat;lon;timestamp;temperature;humidity
27224;DHT22;14965;50.660;13.226;2022-08-01T00:01:22;17.20;99.90
27224;DHT22;14965;50.660;13.226;2022-08-01T00:03:48;17.10;99.90
27224;DHT22;14965;50.660;13.226;2022-08-01T00:06:15;17.10;99.90
27224;DHT22;14965;50.660;13.226;2022-08-01T00:08:42;17.00;99.90
27224;DHT22;14965;50.660;13.226;2022-08-01T00:11:08;17.00;99.90
27224;DHT22;14965;50.660;13.226;2022-08-01T00:13:34;17.00;99.90
27224;DHT22;14965;50.660;13.226;2022-08-01T00:16:00;17.00;99.90
27224;DHT22;14965;50.660;13.226;2022-08-01T00:18:26;16.90;99.90
27224;DHT22;14965;50.660;13.226;2022-08-01T00:20:52;16.90;99.90
27224;DHT22;14965;50.660;13.226;2022-08-01T00:23:18;16.90;99.90
27224;DHT22;14965;50.660;13.226;2022-08-01T00:25:45;16.80;99.90
27224;DHT22;14965;50.660;13.226;2022-08-01T00:28:11;16.80;99.90
27224;DHT22;14965;50.660;13.226;2022-08-01T00:30:37;16.70;99.90
27224;DHT22;14965;50.660;13.226;2022-08-01T00:33:02;16.70;99.90
27224;DHT22;14965;50.660;13.226;2022-08-01T00:35:29;16.60;99.90
27224;DHT22;14965;50.660;13.226;2022-08-01T00:37:55;16.70;99.90
27224;DHT22;14965;50.660;13.226;2022-08-01T00:40:21;16.60;99.90
27224;DHT22;14965;50.660;13.226;2022-08-01T00:42:48;16.50;99.90
27224;DHT22;14965;50.660;13.226;2022-08-01T00:45:14;16.50;99.90
27224;DHT22;14965;50.660;13.226;2022-08-01T00:47:41;16.40;99.90
27224;DHT22;14965;50.660;13.226;2022-08-01T00:50:09;16.40;99.90
27224;DHT22;14965;50.660;13.226;2022-08-01T00:52:36;16.40;99.90
27224;DHT22;14965;50.660;13.226;2022-08-01T00:55:03;16.40;99.90
27224;DHT22;14965;50.660;13.226;2022-08-01T00:57:29;16.40;99.90
27224;DHT22;14965;50.660;13.226;2022-08-01T00:59:57;16.30;99.90
27224;DHT22;14965;50.660;13.226;2022-08-01T01:02:23;16.30;99.90
27224;DHT22;14965;50.660;13.226;2022-08-01T01:04:48;16.30;99.90
27224;DHT22;14965;50.660;13.226;2022-08-01T01:07:19;16.20;99.90
27224;DHT22;14965;50.660;13.226;2022-08-01T01:09:56;16.10;99.90
27224;DHT22;14965;50.660;13.226;2022-08-01T01:12:29;16.00;99.90
27224;DHT22;14965;50.660;13.226;2022-08-01T01:15:06;16.00;99.90
27224;DHT22;14965;50.660;13.226;2022-08-01T01:17:39;16.00;99.90
27224;DHT22;14965;50.660;13.226;2022-08-01T01:20:13;15.90;99.90
27224;DHT22;14965;50.660;13.226;2022-08-01T01:22:50;15.90;99.90
27224;DHT22;14965;50.660;13.226;2022-08-01T01:25:40;15.90;99.90
27224;DHT22;14965;50.660;13.226;2022-08-01T01:28:21;15.90;99.90
27224;DHT22;14965;50.660;13.226;2022-08-01T01:30:57;15.90;99.90
27224;DHT22;14965;50.660;13.226;2022-08-01T01:33:26;15.90;99.90
27224;DHT22;14965;50.660;13.226;2022-08-01T01:35:57;15.90;99.90
27224;DHT22;14965;50.660;13.226;2022-08-01T01:38:29;15.90;99.90
27224;DHT22;14965;50.660;13.226;2022-08-01T01:41:00;15.90;99.90
27224;DHT22;14965;50.660;13.226;2022-08-01T01:43:29;15.90;99.90
27224;DHT22;14965;50.660;13.226;2022-08-01T01:46:00;15.90;99.90
27224;DHT22;14965;50.660;13.226;2022-08-01T01:48:28;15.90;99.90
27224;DHT22;14965;50.660;13.226;2022-08-01T01:50:55;16.00;99.90
27224;DHT22;14965;50.660;13.226;2022-08-01T01:53:22;16.00;99.90
27224;DHT22;14965;50.660;13.226;2022-08-01T01:55:52;16.00;99.90
27224;DHT22;14965;50.660;13.226;2022-08-01T01:58:20;15.90;99.90
27224;DHT22;14965;50.660;13.226;2022-08-01T02:00:50;15.90;99.90
27224;DHT22;14965;50.660;13.226;2022-08-01T02:03:19;15.90;99.90
27224;DHT22;14965;50.660;13.226;2022-08-01T02:05:47;15.90;99.90
27224;DHT22;14965;50.660;13.226;2022-08-01T02:08:15;15.90;99.90
27224;DHT22;14965;50.660;13.226;2022-08-01T02:10:42;15.90;99.90
27224;DHT22;14965;50.660;13.226;2022-08-01T02:13:10;15.90;99.90
27224;DHT22;14965;50.660;13.226;2022-08-01T02:15:36;16.00;99.90
27224;DHT22;14965;50.660;13.226;2022-08-01T02:18:02;16.00;99.90
27224;DHT22;14965;50.660;13.226;2022-08-01T02:20:30;16.00;99.90
27224;DHT22;14965;50.660;13.226;2022-08-01T02:23:04;16.00;99.90
27224;DHT22;14965;50.660;13.226;2022-08-01T02:25:38;16.10;99.90
27224;DHT22;14965;50.660;13.226;2022-08-01T02:28:10;16.10;99.90
27224;DHT22;14965;50.660;13.226;2022-08-01T02:30:45;16.10;99.90
27224;DHT22;14965;50.660;13.226;2022-08-01T02:33:16;16.10;99.90
27224;DHT22;14965;50.660;13.226;2022-08-01T02:35:48;16.10;99.90
27224;DHT22;14965;50.660;13.226;2022-08-01T02:38:20;16.00;99.90
27224;DHT22;14965;50.660;13.226;2022-08-01T02:40:50;16.00;99.90
27224;DHT22;14965;50.660;13.226;2022-08-01T02:43:21;16.00;99.90
27224;DHT22;14965;50.660;13.226;2022-08-01T02:45:53;16.00;99.90
27224;DHT22;14965;50.660;13.226;2022-08-01T02:48:22;16.10;99.90
27224;DHT22;14965;50.660;13.226;2022-08-01T02:50:55;16.10;99.90
27224;DHT22;14965;50.660;13.226;2022-08-01T02:53:25;16.10;99.90
27224;DHT22;14965;50.660;13.226;2022-08-01T02:55:54;16.10;99.90
27224;DHT22;14965;50.660;13.226;2022-08-01T02:58:21;16.10;99.90
27224;DHT22;14965;50.660;13.226;2022-08-01T03:00:47;16.20;99.90
27224;DHT22;14965;50.660;13.226;2022-08-01T03:03:14;16.30;99.90
27224;DHT22;14965;50.660;13.226;2022-08-01T03:05:43;16.30;99.90
27224;DHT22;14965;50.660;13.226;2022-08-01T03:08:12;16.30;99.90
27224;DHT22;14965;50.660;13.226;2022-08-01T03:10:42;16.40;99.90
27224;DHT22;14965;50.660;13.226;2022-08-01T03:13:10;16.40;99.90
27224;DHT22;14965;50.660;13.226;2022-08-01T03:15:40;16.40;99.90
27224;DHT22;14965;50.660;13.226;2022-08-01T03:18:10;16.40;99.90
27224;DHT22;14965;50.660;13.226;2022-08-01T03:20:38;16.40;99.90
27224;DHT22;14965;50.660;13.226;2022-08-01T03:23:07;16.50;99.90
27224;DHT22;14965;50.660;13.226;2022-08-01T03:25:38;16.50;99.90
27224;DHT22;14965;50.660;13.226;2022-08-01T03:28:07;16.50;99.90
27224;DHT22;14965;50.660;13.226;2022-08-01T03:30:37;16.60;99.90
27224;DHT22;14965;50.660;13.226;2022-08-01T03:33:04;16.60;99.90
27224;DHT22;14965;50.660;13.226;2022-08-01T03:35:35;16.60;99.90
27224;DHT22;14965;50.660;13.226;2022-08-01T03:38:05;16.60;99.90
27224;DHT22;14965;50.660;13.226;2022-08-01T03:40:39;16.70;99.90
27224;DHT22;14965;50.660;13.226;2022-08-01T03:43:10;16.70;99.90
27224;DHT22;14965;50.660;13.226;2022-08-01T03:45:45;16.70;99.90
27224;DHT22;14965;50.660;13.226;2022-08-01T03:48:16;16.70;99.90
27224;DHT22;14965;50.660;13.226;2022-08-01T03:50:50;16.70;99.90
27224;DHT22;14965;50.660;13.226;2022-08-01T03:53:20;16.60;99.90
27224;DHT22;14965;50.660;13.226;2022-08-01T03:55:53;16.60;99.90
27224;DHT22;14965;50.660;13.226;2022-08-01T03:58:20;16.70;99.90
27224;DHT22;14965;50.660;13.226;2022-08-01T04:00:47;16.70;99.90
27224;DHT22;14965;50.660;13.226;2022-08-01T04:03:14;16.70;99.90
27224;DHT22;14965;50.660;13.226;2022-08-01T04:05:41;16.60;99.90
27224;DHT22;14965;50.660;13.226;2022-08-01T04:08:07;16.70;99.90
27224;DHT22;14965;50.660;13.226;2022-08-01T04:10:33;16.70;99.90
27224;DHT22;14965;50.660;13.226;2022-08-01T04:13:00;16.70;99.90
27224;DHT22;14965;50.660;13.226;2022-08-01T04:15:26;16.70;99.90
27224;DHT22;14965;50.660;13.226;2022-08-01T04:17:52;16.80;99.90
27224;DHT22;14965;50.660;13.226;2022-08-01T04:20:17;16.80;99.90
27224;DHT22;14965;50.660;13.226;2022-08-01T04:22:43;16.80;99.90
27224;DHT22;14965;50.660;13.226;2022-08-01T04:25:12;16.80;99.90
27224;DHT22;14965;50.660;13.226;2022-08-01T04:27:46;16.90;99.90
27224;DHT22;14965;50.660;13.226;2022-08-01T04:30:16;17.00;99.90
27224;DHT22;14965;50.660;13.226;2022-08-01T04:32:46;17.00;99.90
27224;DHT22;14965;50.660;13.226;2022-08-01T04:35:15;17.00;99.90
27224;DHT22;14965;50.660;13.226;2022-08-01T04:37:46;17.10;99.90
27224;DHT22;14965;50.660;13.226;2022-08-01T04:40:14;17.10;99.90
27224;DHT22;14965;50.660;13.226;2022-08-01T04:42:41;17.10;99.90
27224;DHT22;14965;50.660;13.226;2022-08-01T04:45:08;17.20;99.90
27224;DHT22;14965;50.660;13.226;2022-08-01T04:47:37;17.20;99.90
27224;DHT22;14965;50.660;13.226;2022-08-01T04:50:05;17.30;99.90
27224;DHT22;14965;50.660;13.226;2022-08-01T04:52:33;17.30;99.90
27224;DHT22;14965;50.660;13.226;2022-08-01T04:55:00;17.40;99.90
27224;DHT22;14965;50.660;13.226;2022-08-01T04:57:26;17.40;99.90
27224;DHT22;14965;50.660;13.226;2022-08-01T04:59:52;17.40;99.90
27224;DHT22;14965;50.660;13.226;2022-08-01T05:02:18;17.40;99.90
27224;DHT22;14965;50.660;13.226;2022-08-01T05:04:49;17.40;99.90
27224;DHT22;14965;50.660;13.226;2022-08-01T05:07:15;17.50;99.90
27224;DHT22;14965;50.660;13.226;2022-08-01T05:09:41;17.50;99.90
27224;DHT22;14965;50.660;13.226;2022-08-01T05:12:08;17.50;99.90
27224;DHT22;14965;50.660;13.226;2022-08-01T05:14:35;17.50;99.90
27224;DHT22;14965;50.660;13.226;2022-08-01T05:17:02;17.50;99.90
27224;DHT22;14965;50.660;13.226;2022-08-01T05:19:29;17.50;99.90
27224;DHT22;14965;50.660;13.226;2022-08-01T05:21:57;17.60;99.90
27224;DHT22;14965;50.660;13.226;2022-08-01T05:24:23;17.50;99.90
27224;DHT22;14965;50.660;13.226;2022-08-01T05:26:49;17.50;99.90
27224;DHT22;14965;50.660;13.226;2022-08-01T05:29:15;17.60;99.90
27224;DHT22;14965;50.660;13.226;2022-08-01T05:31:41;17.60;99.90
27224;DHT22;14965;50.660;13.226;2022-08-01T05:34:07;17.60;99.90
27224;DHT22;14965;50.660;13.226;2022-08-01T05:36:32;17.60;99.90
27224;DHT22;14965;50.660;13.226;2022-08-01T05:39:00;17.50;99.90
27224;DHT22;14965;50.660;13.226;2022-08-01T05:41:25;17.50;99.90
27224;DHT22;14965;50.660;13.226;2022-08-01T05:43:51;17.50;99.90
27224;DHT22;14965;50.660;13.226;2022-08-01T05:46:17;17.50;99.90
27224;DHT22;14965;50.660;13.226;2022-08-01T05:48:43;17.50;99.90
27224;DHT22;14965;50.660;13.226;2022-08-01T05:51:09;17.50;99.90
27224;DHT22;14965;50.660;13.226;2022-08-01T05:53:34;17.50;99.90
27224;DHT22;14965;50.660;13.226;2022-08-01T05:56:02;17.50;99.90
27224;DHT22;14965;50.660;13.226;2022-08-01T05:58:28;17.50;99.90
27224;DHT22;14965;50.660;13.226;2022-08-01T06:00:53;17.60;99.90
27224;DHT22;14965;50.660;13.226;2022-08-01T06:03:19;17.60;99.90
27224;DHT22;14965;50.660;13.226;2022-08-01T06:05:45;17.70;99.90
27224;DHT22;14965;50.660;13.226;2022-08-01T06:08:11;17.70;99.90
27224;DHT22;14965;50.660;13.226;2022-08-01T06:10:37;17.70;99.90
27224;DHT22;14965;50.660;13.226;2022-08-01T06:13:04;17.70;99.90
27224;DHT22;14965;50.660;13.226;2022-08-01T06:15:30;17.70;99.90
27224;DHT22;14965;50.660;13.226;2022-08-01T06:17:56;17.80;99.90
27224;DHT22;14965;50.660;13.226;2022-08-01T06:20:22;17.70;99.90
27224;DHT22;14965;50.660;13.226;2022-08-01T06:22:47;17.70;99.90
27224;DHT22;14965;50.660;13.226;2022-08-01T06:25:13;17.70;99.90
27224;DHT22;14965;50.660;13.226;2022-08-01T06:27:39;17.80;99.90
27224;DHT22;14965;50.660;13.226;2022-08-01T06:30:07;17.80;99.90
27224;DHT22;14965;50.660;13.226;2022-08-01T06:32:33;17.80;99.90
27224;DHT22;14965;50.660;13.226;2022-08-01T06:34:59;17.80;99.90
27224;DHT22;14965;50.660;13.226;2022-08-01T06:37:28;17.90;99.90
27224;DHT22;14965;50.660;13.226;2022-08-01T06:39:55;17.90;99.90
27224;DHT22;14965;50.660;13.226;2022-08-01T06:42:20;17.90;99.90
27224;DHT22;14965;50.660;13.226;2022-08-01T06:44:46;17.90;99.90
27224;DHT22;14965;50.660;13.226;2022-08-01T06:47:13;18.00;99.90
27224;DHT22;14965;50.660;13.226;2022-08-01T06:49:39;18.00;99.90
27224;DHT22;14965;50.660;13.226;2022-08-01T06:52:05;18.00;99.90
27224;DHT22;14965;50.660;13.226;2022-08-01T06:54:31;18.10;99.90
27224;DHT22;14965;50.660;13.226;2022-08-01T06:56:57;18.10;99.90
27224;DHT22;14965;50.660;13.226;2022-08-01T06:59:22;18.10;99.90
27224;DHT22;14965;50.660;13.226;2022-08-01T07:01:48;18.00;99.90
27224;DHT22;14965;50.660;13.226;2022-08-01T07:04:15;18.00;99.90
27224;DHT22;14965;50.660;13.226;2022-08-01T07:06:41;18.00;99.90
27224;DHT22;14965;50.660;13.226;2022-08-01T07:09:07;18.10;99.90
27224;DHT22;14965;50.660;13.226;2022-08-01T07:11:33;18.10;99.90
27224;DHT22;14965;50.660;13.226;2022-08-01T07:13:59;18.10;99.90
27224;DHT22;14965;50.660;13.226;2022-08-01T07:16:24;18.10;99.90
27224;DHT22;14965;50.660;13.226;2022-08-01T07:18:50;18.10;99.90
27224;DHT22;14965;50.660;13.226;2022-08-01T07:21:17;18.10;99.90
27224;DHT22;14965;50.660;13.226;2022-08-01T07:23:43;18.10;99.90
27224;DHT22;14965;50.660;13.226;2022-08-01T07:26:09;18.10;99.90
27224;DHT22;14965;50.660;13.226;2022-08-01T07:28:35;18.10;99.90
27224;DHT22;14965;50.660;13.226;2022-08-01T07:31:01;18.10;99.90
27224;DHT22;14965;50.660;13.226;2022-08-01T07:33:26;18.30;99.90
27224;DHT22;14965;50.660;13.226;2022-08-01T07:35:52;18.40;99.90
27224;DHT22;14965;50.660;13.226;2022-08-01T07:38:19;18.50;99.90
27224;DHT22;14965;50.660;13.226;2022-08-01T07:40:45;18.50;99.90
27224;DHT22;14965;50.660;13.226;2022-08-01T07:43:11;18.50;99.90
27224;DHT22;14965;50.660;13.226;2022-08-01T07:45:37;18.50;99.90
27224;DHT22;14965;50.660;13.226;2022-08-01T07:48:03;18.50;99.90
27224;DHT22;14965;50.660;13.226;2022-08-01T07:50:30;18.30;99.90
27224;DHT22;14965;50.660;13.226;2022-08-01T07:52:56;18.20;99.90
27224;DHT22;14965;50.660;13.226;2022-08-01T07:55:23;18.20;99.90
27224;DHT22;14965;50.660;13.226;2022-08-01T07:57:49;18.20;99.90
27224;DHT22;14965;50.660;13.226;2022-08-01T08:00:16;18.10;99.90
27224;DHT22;14965;50.660;13.226;2022-08-01T08:02:42;18.20;99.90
27224;DHT22;14965;50.660;13.226;2022-08-01T08:05:08;18.20;99.90
27224;DHT22;14965;50.660;13.226;2022-08-01T08:07:34;18.30;99.90
27224;DHT22;14965;50.660;13.226;2022-08-01T08:10:00;18.40;99.90
27224;DHT22;14965;50.660;13.226;2022-08-01T08:12:27;18.40;99.90
27224;DHT22;14965;50.660;13.226;2022-08-01T08:14:53;18.50;99.90
27224;DHT22;14965;50.660;13.226;2022-08-01T08:17:19;18.60;99.90
27224;DHT22;14965;50.660;13.226;2022-08-01T08:19:45;18.70;99.90
27224;DHT22;14965;50.660;13.226;2022-08-01T08:22:10;18.60;99.90
27224;DHT22;14965;50.660;13.226;2022-08-01T08:24:37;18.70;99.90
27224;DHT22;14965;50.660;13.226;2022-08-01T08:27:03;18.70;99.90
27224;DHT22;14965;50.660;13.226;2022-08-01T08:29:31;18.70;99.90
27224;DHT22;14965;50.660;13.226;2022-08-01T08:31:57;18.70;99.90
27224;DHT22;14965;50.660;13.226;2022-08-01T08:34:24;18.70;99.90
27224;DHT22;14965;50.660;13.226;2022-08-01T08:36:51;18.80;99.90
27224;DHT22;14965;50.660;13.226;2022-08-01T08:39:17;18.70;99.90
27224;DHT22;14965;50.660;13.226;2022-08-01T08:41:44;18.60;99.90
27224;DHT22;14965;50.660;13.226;2022-08-01T08:44:10;18.60;99.90
27224;DHT22;14965;50.660;13.226;2022-08-01T08:46:40;18.70;99.90
27224;DHT22;14965;50.660;13.226;2022-08-01T08:49:08;18.80;99.90
27224;DHT22;14965;50.660;13.226;2022-08-01T08:51:38;18.80;99.90
27224;DHT22;14965;50.660;13.226;2022-08-01T08:54:06;18.70;99.90
27224;DHT22;14965;50.660;13.226;2022-08-01T08:56:34;18.80;99.90
27224;DHT22;14965;50.660;13.226;2022-08-01T08:59:01;18.90;99.90
27224;DHT22;14965;50.660;13.226;2022-08-01T09:01:28;19.10;99.90
27224;DHT22;14965;50.660;13.226;2022-08-01T09:03:57;19.20;99.90
27224;DHT22;14965;50.660;13.226;2022-08-01T09:06:24;19.30;99.90
27224;DHT22;14965;50.660;13.226;2022-08-01T09:08:50;19.30;99.90
27224;DHT22;14965;50.660;13.226;2022-08-01T09:11:15;19.30;99.90
27224;DHT22;14965;50.660;13.226;2022-08-01T09:13:41;19.30;99.90
27224;DHT22;14965;50.660;13.226;2022-08-01T09:16:26;19.30;99.90
27224;DHT22;14965;50.660;13.226;2022-08-01T09:18:52;19.20;99.90
27224;DHT22;14965;50.660;13.226;2022-08-01T09:21:21;19.20;99.90
27224;DHT22;14965;50.660;13.226;2022-08-01T09:23:50;19.40;99.90
27224;DHT22;14965;50.660;13.226;2022-08-01T09:26:19;19.50;99.90
27224;DHT22;14965;50.660;13.226;2022-08-01T09:28:47;19.70;99.90
27224;DHT22;14965;50.660;13.226;2022-08-01T09:31:14;20.00;99.90
27224;DHT22;14965;50.660;13.226;2022-08-01T09:33:49;20.30;99.90
27224;DHT22;14965;50.660;13.226;2022-08-01T09:36:16;20.40;99.90
27224;DHT22;14965;50.660;13.226;2022-08-01T09:38:44;20.60;99.90
27224;DHT22;14965;50.660;13.226;2022-08-01T09:41:10;20.60;99.90
27224;DHT22;14965;50.660;13.226;2022-08-01T09:43:36;20.60;99.90
27224;DHT22;14965;50.660;13.226;2022-08-01T09:46:05;20.60;99.90
27224;DHT22;14965;50.660;13.226;2022-08-01T09:48:35;21.00;99.90
27224;DHT22;14965;50.660;13.226;2022-08-01T09:51:01;21.00;99.90
27224;DHT22;14965;50.660;13.226;2022-08-01T09:53:40;21.20;99.90
27224;DHT22;14965;50.660;13.226;2022-08-01T09:56:11;21.40;99.90
27224;DHT22;14965;50.660;13.226;2022-08-01T09:58:54;21.40;99.90
27224;DHT22;14965;50.660;13.226;2022-08-01T10:01:21;21.30;99.90
27224;DHT22;14965;50.660;13.226;2022-08-01T10:04:04;21.40;99.90
27224;DHT22;14965;50.660;13.226;2022-08-01T10:06:31;21.50;99.90
27224;DHT22;14965;50.660;13.226;2022-08-01T10:08:57;21.50;99.90
27224;DHT22;14965;50.660;13.226;2022-08-01T10:11:24;21.50;99.90
27224;DHT22;14965;50.660;13.226;2022-08-01T10:13:51;21.50;99.90
27224;DHT22;14965;50.660;13.226;2022-08-01T10:16:17;21.60;99.90
27224;DHT22;14965;50.660;13.226;2022-08-01T10:18:45;21.50;99.90
27224;DHT22;14965;50.660;13.226;2022-08-01T10:21:12;21.30;99.90
27224;DHT22;14965;50.660;13.226;2022-08-01T10:23:38;21.50;99.90
27224;DHT22;14965;50.660;13.226;2022-08-01T10:26:05;21.50;99.90
27224;DHT22;14965;50.660;13.226;2022-08-01T10:28:35;21.40;99.90
27224;DHT22;14965;50.660;13.226;2022-08-01T10:31:02;21.40;99.90
27224;DHT22;14965;50.660;13.226;2022-08-01T10:33:29;21.30;99.90
27224;DHT22;14965;50.660;13.226;2022-08-01T10:35:56;21.20;99.90
27224;DHT22;14965;50.660;13.226;2022-08-01T10:38:22;21.00;99.90
27224;DHT22;14965;50.660;13.226;2022-08-01T10:40:48;20.80;99.90
27224;DHT22;14965;50.660;13.226;2022-08-01T10:43:16;20.80;99.90
27224;DHT22;14965;50.660;13.226;2022-08-01T10:45:43;21.00;99.90
27224;DHT22;14965;50.660;13.226;2022-08-01T10:48:12;21.40;99.90
27224;DHT22;14965;50.660;13.226;2022-08-01T10:50:44;21.50;99.90
27224;DHT22;14965;50.660;13.226;2022-08-01T10:53:14;21.50;99.90
27224;DHT22;14965;50.660;13.226;2022-08-01T10:55:49;21.60;99.90
27224;DHT22;14965;50.660;13.226;2022-08-01T10:58:25;21.70;99.90
27224;DHT22;14965;50.660;13.226;2022-08-01T11:01:16;21.80;99.90
27224;DHT22;14965;50.660;13.226;2022-08-01T11:03:56;22.00;99.90
27224;DHT22;14965;50.660;13.226;2022-08-01T11:06:43;22.20;99.90
27224;DHT22;14965;50.660;13.226;2022-08-01T11:09:30;22.40;99.90
27224;DHT22;14965;50.660;13.226;2022-08-01T11:12:05;22.50;99.90
27224;DHT22;14965;50.660;13.226;2022-08-01T11:14:34;22.50;99.90
27224;DHT22;14965;50.660;13.226;2022-08-01T11:17:34;22.70;99.90
27224;DHT22;14965;50.660;13.226;2022-08-01T11:20:06;22.70;99.90
27224;DHT22;14965;50.660;13.226;2022-08-01T11:29:10;22.70;99.90
27224;DHT22;14965;50.660;13.226;2022-08-01T11:31:38;22.70;99.90
27224;DHT22;14965;50.660;13.226;2022-08-01T11:34:06;22.70;99.90
27224;DHT22;14965;50.660;13.226;2022-08-01T11:36:32;22.80;99.90
27224;DHT22;14965;50.660;13.226;2022-08-01T11:39:14;23.10;99.90
27224;DHT22;14965;50.660;13.226;2022-08-01T11:41:42;23.20;99.90
27224;DHT22;14965;50.660;13.226;2022-08-01T11:44:12;23.20;99.90
27224;DHT22;14965;50.660;13.226;2022-08-01T11:46:48;23.20;99.90
27224;DHT22;14965;50.660;13.226;2022-08-01T11:49:44;23.30;99.90
27224;DHT22;14965;50.660;13.226;2022-08-01T11:52:14;23.40;99.90
27224;DHT22;14965;50.660;13.226;2022-08-01T11:54:42;23.20;99.90
27224;DHT22;14965;50.660;13.226;2022-08-01T11:57:10;23.10;99.90
27224;DHT22;14965;50.660;13.226;2022-08-01T11:59:43;23.00;99.90
27224;DHT22;14965;50.660;13.226;2022-08-01T12:02:30;23.00;99.90
27224;DHT22;14965;50.660;13.226;2022-08-01T12:04:59;22.80;99.90
27224;DHT22;14965;50.660;13.226;2022-08-01T12:07:28;22.80;99.90
27224;DHT22;14965;50.660;13.226;2022-08-01T12:10:01;22.80;99.90
27224;DHT22;14965;50.660;13.226;2022-08-01T12:12:30;22.80;99.90
27224;DHT22;14965;50.660;13.226;2022-08-01T12:14:58;23.00;99.90
27224;DHT22;14965;50.660;13.226;2022-08-01T12:17:33;23.10;99.90
27224;DHT22;14965;50.660;13.226;2022-08-01T12:20:04;23.10;99.90
27224;DHT22;14965;50.660;13.226;2022-08-01T12:22:32;23.20;99.90
27224;DHT22;14965;50.660;13.226;2022-08-01T12:25:05;23.20;99.90
27224;DHT22;14965;50.660;13.226;2022-08-01T12:27:33;23.00;99.90
27224;DHT22;14965;50.660;13.226;2022-08-01T12:30:00;22.70;99.90
27224;DHT22;14965;50.660;13.226;2022-08-01T12:32:28;22.80;99.90
27224;DHT22;14965;50.660;13.226;2022-08-01T12:34:56;22.90;99.90
27224;DHT22;14965;50.660;13.226;2022-08-01T12:37:24;23.00;99.90
27224;DHT22;14965;50.660;13.226;2022-08-01T12:39:50;23.10;99.90
27224;DHT22;14965;50.660;13.226;2022-08-01T12:42:16;23.30;99.90
27224;DHT22;14965;50.660;13.226;2022-08-01T12:44:45;23.70;99.90
27224;DHT22;14965;50.660;13.226;2022-08-01T12:47:15;24.00;99.90
27224;DHT22;14965;50.660;13.226;2022-08-01T12:49:42;24.20;99.90
27224;DHT22;14965;50.660;13.226;2022-08-01T12:52:09;24.20;99.90
27224;DHT22;14965;50.660;13.226;2022-08-01T12:55:04;24.10;99.90
27224;DHT22;14965;50.660;13.226;2022-08-01T12:57:32;24.00;99.90
27224;DHT22;14965;50.660;13.226;2022-08-01T13:00:06;23.60;99.90
27224;DHT22;14965;50.660;13.226;2022-08-01T13:02:34;23.40;99.90
27224;DHT22;14965;50.660;13.226;2022-08-01T13:05:01;23.10;99.90
27224;DHT22;14965;50.660;13.226;2022-08-01T13:07:35;23.00;99.90
27224;DHT22;14965;50.660;13.226;2022-08-01T13:10:08;22.80;99.90
27224;DHT22;14965;50.660;13.226;2022-08-01T13:12:36;22.80;99.90
27224;DHT22;14965;50.660;13.226;2022-08-01T13:15:20;22.70;99.90
27224;DHT22;14965;50.660;13.226;2022-08-01T13:17:48;22.70;99.90
27224;DHT22;14965;50.660;13.226;2022-08-01T13:20:25;22.90;99.90
27224;DHT22;14965;50.660;13.226;2022-08-01T13:22:53;22.90;99.90
27224;DHT22;14965;50.660;13.226;2022-08-01T13:25:20;22.90;99.90
27224;DHT22;14965;50.660;13.226;2022-08-01T13:27:46;23.00;99.90
27224;DHT22;14965;50.660;13.226;2022-08-01T13:30:15;22.80;99.90
27224;DHT22;14965;50.660;13.226;2022-08-01T13:32:42;22.80;99.90
27224;DHT22;14965;50.660;13.226;2022-08-01T13:35:09;22.70;99.90
27224;DHT22;14965;50.660;13.226;2022-08-01T13:37:36;22.70;99.90
27224;DHT22;14965;50.660;13.226;2022-08-01T13:40:03;22.50;99.90
27224;DHT22;14965;50.660;13.226;2022-08-01T13:42:31;22.50;99.90
27224;DHT22;14965;50.660;13.226;2022-08-01T13:44:57;22.70;99.90
27224;DHT22;14965;50.660;13.226;2022-08-01T13:47:23;23.00;99.90
27224;DHT22;14965;50.660;13.226;2022-08-01T13:49:49;23.20;99.90
27224;DHT22;14965;50.660;13.226;2022-08-01T13:52:14;23.40;99.90
27224;DHT22;14965;50.660;13.226;2022-08-01T13:54:40;23.50;99.90
27224;DHT22;14965;50.660;13.226;2022-08-01T13:57:06;23.50;99.90
27224;DHT22;14965;50.660;13.226;2022-08-01T13:59:36;23.40;99.90
27224;DHT22;14965;50.660;13.226;2022-08-01T14:02:02;23.30;99.90
27224;DHT22;14965;50.660;13.226;2022-08-01T14:04:31;23.20;99.90
27224;DHT22;14965;50.660;13.226;2022-08-01T14:07:03;23.10;99.90
27224;DHT22;14965;50.660;13.226;2022-08-01T14:09:53;22.80;99.90
27224;DHT22;14965;50.660;13.226;2022-08-01T14:12:25;22.70;99.90
27224;DHT22;14965;50.660;13.226;2022-08-01T14:15:18;22.60;99.90
27224;DHT22;14965;50.660;13.226;2022-08-01T14:18:10;22.40;99.90
27224;DHT22;14965;50.660;13.226;2022-08-01T14:20:37;22.30;99.90
27224;DHT22;14965;50.660;13.226;2022-08-01T14:23:08;22.30;99.90
27224;DHT22;14965;50.660;13.226;2022-08-01T14:25:34;22.40;99.90
27224;DHT22;14965;50.660;13.226;2022-08-01T14:28:07;22.50;99.90
27224;DHT22;14965;50.660;13.226;2022-08-01T14:30:40;22.70;99.90
27224;DHT22;14965;50.660;13.226;2022-08-01T14:33:19;22.80;99.90
27224;DHT22;14965;50.660;13.226;2022-08-01T14:35:48;22.90;99.90
27224;DHT22;14965;50.660;13.226;2022-08-01T14:38:38;22.90;99.90
27224;DHT22;14965;50.660;13.226;2022-08-01T14:41:04;22.70;99.90
27224;DHT22;14965;50.660;13.226;2022-08-01T14:43:30;22.60;99.90
27224;DHT22;14965;50.660;13.226;2022-08-01T14:45:58;22.50;99.90
27224;DHT22;14965;50.660;13.226;2022-08-01T14:48:24;22.50;99.90
27224;DHT22;14965;50.660;13.226;2022-08-01T14:50:50;22.60;99.90
27224;DHT22;14965;50.660;13.226;2022-08-01T14:53:16;22.80;99.90
27224;DHT22;14965;50.660;13.226;2022-08-01T14:55:42;23.00;99.90
27224;DHT22;14965;50.660;13.226;2022-08-01T14:58:08;23.10;99.90
27224;DHT22;14965;50.660;13.226;2022-08-01T15:00:34;23.00;99.90
27224;DHT22;14965;50.660;13.226;2022-08-01T15:03:01;22.90;99.90
27224;DHT22;14965;50.660;13.226;2022-08-01T15:05:27;22.70;99.90
27224;DHT22;14965;50.660;13.226;2022-08-01T15:07:53;22.50;99.90
27224;DHT22;14965;50.660;13.226;2022-08-01T15:10:19;22.40;99.90
27224;DHT22;14965;50.660;13.226;2022-08-01T15:12:45;22.20;99.90
27224;DHT22;14965;50.660;13.226;2022-08-01T15:15:11;21.90;99.90
27224;DHT22;14965;50.660;13.226;2022-08-01T15:17:37;21.80;99.90
27224;DHT22;14965;50.660;13.226;2022-08-01T15:20:06;21.80;99.90
27224;DHT22;14965;50.660;13.226;2022-08-01T15:22:33;22.00;99.90
27224;DHT22;14965;50.660;13.226;2022-08-01T15:25:00;22.10;99.90
27224;DHT22;14965;50.660;13.226;2022-08-01T15:27:28;22.20;99.90
27224;DHT22;14965;50.660;13.226;2022-08-01T15:29:54;22.30;99.90
27224;DHT22;14965;50.660;13.226;2022-08-01T15:32:21;22.50;99.90